Time;durP1;ratioP1;P1;durP2;ratioP2;P2;SDS_P1;SDS_P2;PMS_P1;PMS_P2;Temp;Humidity;BMP_temperature;BMP_pressure;BME280_temperature;BME280_humidity;BME280_pressure;Samples;Min_cycle;Max_cycle;Signal;HPM_P1;HPM_P2
2022/01/23 00:00:54;;;;;;;50.92;29.63;;;5.90;99.90;;;;;;6116794;23;20337;-82
2022/01/23 00:03:20;;;;;;;57.80;31.33;;;6.10;99.90;;;;;;6116830;23;20256;-83
2022/01/23 00:05:48;;;;;;;47.57;29.03;;;6.10;99.90;;;;;;6114842;23;20200;-82
2022/01/23 00:08:19;;;;;;;48.75;30.20;;;6.10;99.90;;;;;;6118116;23;20235;-82
2022/01/23 00:10:45;;;;;;;46.90;29.27;;;6.20;99.90;;;;;;6114886;23;20552;-83
2022/01/23 00:13:28;;;;;;;50.42;31.75;;;6.30;99.90;;;;;;6116432;23;20165;-84
2022/01/23 00:18:38;;;;;;;49.03;30.85;;;6.40;99.90;;;;;;6116837;23;20149;-83
2022/01/23 00:21:04;;;;;;;50.67;31.23;;;6.00;99.90;;;;;;6117970;23;20142;-84
2022/01/23 00:30:16;;;;;;;52.70;31.80;;;6.10;99.90;;;;;;6117290;23;20165;-84
2022/01/23 00:31:44;;;;;;;63.97;35.03;;;6.00;99.90;;;;;;6121203;23;20145;-83
2022/01/23 00:34:09;;;;;;;55.90;34.93;;;7.60;99.90;;;;;;6116938;23;20161;-83
2022/01/23 00:36:35;;;;;;;56.20;32.33;;;5.80;99.90;;;;;;6117229;23;20180;-84
2022/01/23 00:39:01;;;;;;;52.93;29.53;;;5.80;99.90;;;;;;6116433;23;20213;-83
2022/01/23 00:41:27;;;;;;;55.28;34.58;;;5.90;99.90;;;;;;6118796;23;20236;-83
2022/01/23 00:43:54;;;;;;;63.53;32.70;;;6.00;99.90;;;;;;6114931;23;20192;-84
2022/01/23 00:51:29;;;;;;;54.33;30.88;;;6.10;99.90;;;;;;6119412;23;20149;-83
2022/01/23 00:53:59;;;;;;;49.75;31.08;;;7.30;99.90;;;;;;6114285;23;20170;-83
2022/01/23 00:56:25;;;;;;;53.53;31.77;;;5.90;99.90;;;;;;6116235;23;20154;-83
2022/01/23 00:59:33;;;;;;;47.13;29.70;;;9.00;99.90;;;;;;6113842;23;20201;-83
2022/01/23 01:01:59;;;;;;;55.67;30.95;;;6.10;99.90;;;;;;6115874;23;20164;-84
2022/01/23 01:04:25;;;;;;;61.87;35.07;;;6.10;99.90;;;;;;6113636;23;20157;-83
2022/01/23 01:06:50;;;;;;;64.83;33.80;;;6.00;99.90;;;;;;6115996;23;20173;-83
2022/01/23 01:09:17;;;;;;;70.40;35.57;;;5.90;99.90;;;;;;6113550;23;20203;-82
2022/01/23 01:17:10;;;;;;;52.92;30.30;;;5.20;99.90;;;;;;6127452;23;20216;-82
2022/01/23 01:35:57;;;;;;;54.03;30.60;;;6.00;99.90;;;;;;6127655;23;20164;-83
2022/01/23 01:38:24;;;;;;;56.08;32.90;;;5.90;99.90;;;;;;6115409;23;20269;-82
2022/01/23 01:40:50;;;;;;;63.28;34.25;;;5.70;99.90;;;;;;6115734;23;20476;-82
2022/01/23 01:43:17;;;;;;;61.40;31.42;;;5.80;99.90;;;;;;6115674;23;20153;-82
2022/01/23 01:45:43;;;;;;;53.40;30.48;;;7.70;99.90;;;;;;6113553;23;20165;-82
2022/01/23 01:48:10;;;;;;;52.88;30.58;;;6.10;99.90;;;;;;6114954;23;20441;-82
2022/01/23 01:50:43;;;;;;;56.70;32.35;;;5.80;99.90;;;;;;6113777;23;20165;-81
2022/01/23 01:53:11;;;;;;;55.67;30.73;;;5.60;99.90;;;;;;6117172;23;20136;-81
2022/01/23 01:55:42;;;;;;;63.13;33.97;;;6.00;99.90;;;;;;6113637;23;20171;-82
2022/01/23 01:58:32;;;;;;;62.28;30.90;;;5.90;99.90;;;;;;6117216;23;20177;-82
2022/01/23 02:00:58;;;;;;;49.70;29.25;;;5.40;99.90;;;;;;6117254;23;20625;-82
2022/01/23 02:08:20;;;;;;;46.10;28.30;;;5.90;99.90;;;;;;6115160;23;20498;-82
2022/01/23 02:09:11;;;;;;;62.85;32.85;;;6.10;99.90;;;;;;6114875;23;20196;-82
2022/01/23 02:54:56;;;;;;;51.05;31.63;;;5.80;99.90;;;;;;6119299;23;20519;-83
2022/01/23 02:57:37;;;;;;;62.40;34.60;;;6.10;99.90;;;;;;6115243;23;20410;-83
2022/01/23 03:00:12;;;;;;;56.53;30.77;;;5.90;99.90;;;;;;6114865;23;20636;-83
2022/01/23 03:02:43;;;;;;;56.28;30.38;;;5.70;99.90;;;;;;6117296;23;20152;-82
2022/01/23 03:05:12;;;;;;;59.08;30.60;;;6.20;99.90;;;;;;6115034;23;20154;-83
2022/01/23 03:07:56;;;;;;;55.35;30.70;;;5.80;99.90;;;;;;6118694;23;20158;-83
2022/01/23 03:10:31;;;;;;;51.65;29.92;;;5.70;99.90;;;;;;6116840;23;20506;-83
2022/01/23 03:26:48;;;;;;;60.35;29.92;;;5.90;99.90;;;;;;6118399;23;20600;-82
2022/01/23 03:29:23;;;;;;;44.05;27.35;;;6.00;99.90;;;;;;6114319;23;20329;-84
2022/01/23 03:34:27;;;;;;;51.30;30.20;;;6.10;99.90;;;;;;6122340;23;20161;-83
2022/01/23 03:36:53;;;;;;;53.08;27.83;;;6.00;99.90;;;;;;6119040;23;20140;-83
2022/01/23 03:39:19;;;;;;;54.80;30.67;;;6.10;99.90;;;;;;6111775;23;20208;-86
2022/01/23 03:41:45;;;;;;;49.90;29.97;;;6.00;99.90;;;;;;6118986;23;20663;-86
2022/01/23 03:44:13;;;;;;;50.53;29.60;;;6.00;99.90;;;;;;6114958;23;20192;-84
2022/01/23 03:49:31;;;;;;;51.88;30.02;;;5.90;99.90;;;;;;6117718;23;20196;-87
2022/01/23 03:52:17;;;;;;;56.55;29.85;;;6.60;99.90;;;;;;6114068;23;20199;-86
2022/01/23 03:54:43;;;;;;;52.00;30.52;;;6.00;99.90;;;;;;6111299;23;20165;-86
2022/01/23 03:57:09;;;;;;;50.90;28.30;;;6.10;99.90;;;;;;6115333;23;20153;-86
2022/01/23 03:59:36;;;;;;;61.33;30.80;;;6.00;99.90;;;;;;6111313;23;20175;-86
2022/01/23 04:02:02;;;;;;;52.63;31.17;;;6.10;99.90;;;;;;6112978;23;20161;-86
2022/01/23 04:04:40;;;;;;;54.38;29.83;;;6.00;99.90;;;;;;6113123;23;20547;-86
2022/01/23 04:07:17;;;;;;;62.90;33.28;;;6.00;99.90;;;;;;6115111;23;20138;-87
2022/01/23 04:09:43;;;;;;;67.35;32.25;;;5.90;99.90;;;;;;6113166;23;20180;-87
2022/01/23 04:12:20;;;;;;;52.08;30.92;;;6.80;99.90;;;;;;6112705;23;20158;-86
2022/01/23 04:14:52;;;;;;;56.47;30.67;;;6.10;99.90;;;;;;6112045;23;20168;-86
2022/01/23 04:20:27;;;;;;;56.15;28.50;;;5.70;99.90;;;;;;6112946;23;20216;-86
2022/01/23 04:34:49;;;;;;;53.65;31.65;;;6.20;99.90;;;;;;6114710;23;20164;-86
2022/01/23 04:48:36;;;;;;;63.10;29.25;;;6.10;99.90;;;;;;6177804;23;20666;-85
2022/01/23 05:01:46;;;;;;;77.30;37.13;;;6.00;99.90;;;;;;6177723;23;20187;-86
2022/01/23 05:04:30;;;;;;;76.43;37.30;;;5.80;99.90;;;;;;6176077;23;20348;-85
2022/01/23 05:07:01;;;;;;;70.05;34.30;;;5.70;99.90;;;;;;6177591;23;20132;-85
2022/01/23 05:09:29;;;;;;;64.55;33.45;;;5.60;99.90;;;;;;6148984;23;20189;-85
2022/01/23 05:12:00;;;;;;;73.00;35.65;;;5.80;99.90;;;;;;6177046;23;20231;-86
2022/01/23 05:14:37;;;;;;;74.15;36.45;;;5.70;99.90;;;;;;6148464;23;20262;-84
2022/01/23 05:17:05;;;;;;;67.03;35.58;;;5.80;99.90;;;;;;6150866;23;20159;-85
2022/01/23 05:19:33;;;;;;;67.68;34.58;;;5.70;99.90;;;;;;6150857;23;20555;-85
2022/01/23 05:22:28;;;;;;;67.60;36.47;;;5.60;99.90;;;;;;6157848;23;20620;-85
2022/01/23 05:25:22;;;;;;;69.28;36.05;;;6.60;99.90;;;;;;6152938;23;20355;-84
2022/01/23 05:27:52;;;;;;;61.50;33.38;;;6.20;99.90;;;;;;6178984;23;20636;-84
2022/01/23 05:30:18;;;;;;;68.95;33.63;;;5.60;99.90;;;;;;6177326;23;20323;-84
2022/01/23 05:32:43;;;;;;;65.93;32.72;;;5.90;99.90;;;;;;6150360;23;20156;-85
2022/01/23 05:35:11;;;;;;;62.93;34.00;;;6.70;99.90;;;;;;6175097;23;20155;-84
2022/01/23 05:37:37;;;;;;;66.30;33.03;;;5.90;99.90;;;;;;6176755;23;20156;-85
2022/01/23 05:40:05;;;;;;;80.90;37.73;;;6.00;99.90;;;;;;6174464;23;20266;-85
2022/01/23 05:42:31;;;;;;;77.30;38.08;;;5.70;99.90;;;;;;6176625;23;20379;-85
2022/01/23 05:44:56;;;;;;;75.87;37.10;;;6.00;99.90;;;;;;6174463;23;20244;-85
2022/01/23 05:47:42;;;;;;;75.73;34.00;;;5.40;99.90;;;;;;6149893;23;20163;-84
2022/01/23 05:50:08;;;;;;;77.07;36.28;;;5.90;99.90;;;;;;6147514;23;20196;-84
2022/01/23 05:52:35;;;;;;;73.40;35.10;;;5.70;99.90;;;;;;6176726;23;20230;-86
2022/01/23 05:55:01;;;;;;;73.25;35.03;;;5.70;99.90;;;;;;6174826;23;20379;-85
2022/01/23 05:57:26;;;;;;;79.88;35.00;;;5.80;99.90;;;;;;6150156;23;20156;-85
2022/01/23 05:59:52;;;;;;;68.07;34.33;;;5.70;99.90;;;;;;6148232;23;20170;-85
2022/01/23 06:02:18;;;;;;;71.97;35.10;;;7.00;99.90;;;;;;6176594;23;20614;-85
2022/01/23 06:04:43;;;;;;;72.50;34.20;;;6.30;99.90;;;;;;6174445;23;20181;-85
2022/01/23 06:07:09;;;;;;;67.93;33.37;;;5.70;99.90;;;;;;6149886;23;20381;-84
2022/01/23 06:09:39;;;;;;;70.57;36.50;;;5.60;99.90;;;;;;6147661;23;20184;-84
2022/01/23 06:12:06;;;;;;;71.20;36.35;;;5.80;99.90;;;;;;6176390;23;20124;-84
2022/01/23 06:14:31;;;;;;;78.15;37.78;;;5.80;99.90;;;;;;6174064;23;20194;-85
2022/01/23 06:16:57;;;;;;;66.13;33.60;;;5.60;99.90;;;;;;6150053;23;20193;-86
2022/01/23 06:19:23;;;;;;;72.50;33.30;;;5.30;99.90;;;;;;6147475;23;20166;-85
2022/01/23 06:21:49;;;;;;;65.87;34.73;;;5.50;99.90;;;;;;6176272;23;20433;-85
2022/01/23 06:24:29;;;;;;;75.93;36.17;;;5.60;99.90;;;;;;6147669;23;20168;-85
2022/01/23 06:26:57;;;;;;;79.13;36.63;;;5.60;99.90;;;;;;6152054;23;20152;-85
2022/01/23 06:29:25;;;;;;;71.95;34.40;;;5.90;99.90;;;;;;6147798;23;20199;-85
2022/01/23 06:31:53;;;;;;;80.10;37.55;;;7.50;99.90;;;;;;6176317;23;20159;-85
2022/01/23 06:34:19;;;;;;;75.07;35.65;;;6.10;99.90;;;;;;6176244;23;20163;-85
2022/01/23 06:36:45;;;;;;;76.90;37.17;;;5.60;99.90;;;;;;6178019;23;20148;-84
2022/01/23 06:39:13;;;;;;;73.97;35.35;;;6.70;99.90;;;;;;6175313;23;20431;-84
2022/01/23 06:41:39;;;;;;;78.45;35.28;;;6.60;99.90;;;;;;6152083;23;20156;-85
2022/01/23 06:44:06;;;;;;;83.53;37.17;;;5.80;99.90;;;;;;6175740;23;20156;-85
2022/01/23 06:46:33;;;;;;;72.85;35.70;;;6.00;99.90;;;;;;6152048;23;20162;-85
2022/01/23 06:48:59;;;;;;;76.07;35.53;;;5.70;99.90;;;;;;6149294;23;20227;-85
2022/01/23 06:51:25;;;;;;;75.45;32.42;;;7.60;99.90;;;;;;6151604;23;20371;-85
2022/01/23 06:53:53;;;;;;;75.67;33.50;;;6.60;99.90;;;;;;6149872;23;20536;-83
2022/01/23 06:56:19;;;;;;;67.72;34.78;;;5.90;99.90;;;;;;6152600;23;20255;-83
2022/01/23 06:58:45;;;;;;;69.20;34.97;;;5.90;99.90;;;;;;6149410;23;20160;-84
2022/01/23 07:01:10;;;;;;;61.53;34.43;;;5.80;99.90;;;;;;6178500;23;20228;-84
2022/01/23 07:03:37;;;;;;;69.83;34.77;;;6.00;99.90;;;;;;6149195;23;20207;-85
2022/01/23 07:06:04;;;;;;;67.88;31.90;;;6.20;99.90;;;;;;6178242;23;20521;-86
2022/01/23 07:08:30;;;;;;;64.90;32.58;;;6.00;99.90;;;;;;6175906;23;20611;-85
2022/01/23 07:10:56;;;;;;;62.97;32.60;;;6.10;99.90;;;;;;6178163;23;20151;-85
2022/01/23 07:13:22;;;;;;;61.40;33.37;;;6.30;99.90;;;;;;6149256;23;20161;-84
2022/01/23 07:15:48;;;;;;;69.70;34.23;;;7.10;99.90;;;;;;6178102;23;20839;-85
2022/01/23 07:18:15;;;;;;;70.55;36.75;;;5.80;99.90;;;;;;6176292;23;20159;-86
2022/01/23 07:20:43;;;;;;;80.78;38.25;;;5.50;99.90;;;;;;6151880;23;20174;-85
2022/01/23 07:23:09;;;;;;;77.60;34.55;;;5.60;99.90;;;;;;6176511;23;20497;-83
2022/01/23 07:25:35;;;;;;;76.93;36.17;;;6.50;99.90;;;;;;6151764;23;20156;-85
2022/01/23 07:28:02;;;;;;;89.30;37.00;;;5.50;99.90;;;;;;6175719;23;20164;-84
2022/01/23 07:30:38;;;;;;;90.07;38.38;;;5.70;99.90;;;;;;6177434;23;20542;-85
2022/01/23 07:33:04;;;;;;;82.20;37.67;;;7.20;99.90;;;;;;6149673;23;20187;-84
2022/01/23 07:35:30;;;;;;;82.23;37.77;;;5.40;99.90;;;;;;6179016;23;20137;-84
2022/01/23 07:37:56;;;;;;;79.93;36.20;;;5.50;99.90;;;;;;6175654;23;20152;-84
2022/01/23 07:40:21;;;;;;;93.93;38.63;;;5.60;99.90;;;;;;6151534;23;20592;-85
2022/01/23 07:42:47;;;;;;;87.40;36.37;;;5.60;99.90;;;;;;6176422;23;20390;-84
2022/01/23 07:45:13;;;;;;;73.07;35.17;;;5.90;99.90;;;;;;6177523;23;20140;-84
2022/01/23 07:47:39;;;;;;;74.55;37.40;;;5.80;99.90;;;;;;6151628;23;20231;-84
2022/01/23 07:50:07;;;;;;;84.93;37.07;;;5.40;99.90;;;;;;6176907;23;20553;-84
2022/01/23 07:52:35;;;;;;;78.57;36.03;;;5.90;99.90;;;;;;6178332;23;20696;-84
2022/01/23 07:55:06;;;;;;;84.32;37.80;;;5.90;99.90;;;;;;6149795;23;20155;-85
2022/01/23 07:57:33;;;;;;;79.50;37.03;;;5.90;99.90;;;;;;6151969;23;20345;-85
2022/01/23 07:59:59;;;;;;;73.45;34.60;;;6.20;99.90;;;;;;6176231;23;20152;-84
2022/01/23 08:02:30;;;;;;;69.40;31.65;;;7.20;99.90;;;;;;6152366;23;20305;-85
2022/01/23 08:04:55;;;;;;;73.50;35.58;;;6.20;99.90;;;;;;6176799;23;20128;-85
2022/01/23 08:09:52;;;;;;;70.80;35.85;;;6.10;99.90;;;;;;6177323;23;20527;-84
2022/01/23 08:12:18;;;;;;;67.10;31.17;;;6.00;99.90;;;;;;6177556;23;20148;-84
2022/01/23 08:14:44;;;;;;;73.93;33.70;;;5.90;99.90;;;;;;6175771;23;20214;-84
2022/01/23 08:17:09;;;;;;;84.27;36.67;;;6.00;99.90;;;;;;6177582;23;20258;-84
2022/01/23 08:19:35;;;;;;;83.37;36.77;;;5.60;99.90;;;;;;6175927;23;20160;-83
2022/01/23 08:22:00;;;;;;;69.33;33.80;;;5.80;99.90;;;;;;6182227;23;20163;-83
2022/01/23 08:24:26;;;;;;;70.37;33.63;;;6.40;99.90;;;;;;6150687;23;20159;-85
2022/01/23 08:26:52;;;;;;;75.43;34.73;;;6.00;99.90;;;;;;6152999;23;20239;-89
2022/01/23 08:29:17;;;;;;;68.80;32.97;;;6.20;99.90;;;;;;6149552;23;20187;-85
2022/01/23 08:31:45;;;;;;;68.63;33.50;;;6.10;99.90;;;;;;6177366;23;20614;-85
2022/01/23 08:34:11;;;;;;;76.53;35.10;;;5.90;99.90;;;;;;6148835;23;20344;-86
2022/01/23 08:36:37;;;;;;;75.13;35.70;;;6.30;99.90;;;;;;6177436;23;20210;-85
2022/01/23 08:39:17;;;;;;;104.80;43.97;;;6.10;99.90;;;;;;6130347;23;20193;-86
2022/01/23 08:41:52;;;;;;;86.30;37.85;;;5.60;99.90;;;;;;6112864;23;20396;-84
2022/01/23 08:44:24;;;;;;;73.97;34.58;;;5.90;99.90;;;;;;6113130;23;20581;-86
2022/01/23 08:46:49;;;;;;;77.25;35.75;;;6.40;99.90;;;;;;6113462;23;20141;-85
2022/01/23 08:49:17;;;;;;;81.13;37.67;;;6.10;99.90;;;;;;6112724;23;20181;-84
2022/01/23 08:51:48;;;;;;;66.03;35.15;;;6.30;99.90;;;;;;6112574;23;20466;-85
2022/01/23 08:54:14;;;;;;;69.72;34.05;;;5.90;99.90;;;;;;6109486;23;20783;-83
2022/01/23 08:56:41;;;;;;;75.53;35.97;;;6.20;99.90;;;;;;6114371;23;20275;-82
2022/01/23 08:59:06;;;;;;;81.00;38.13;;;6.10;99.90;;;;;;6117613;23;20162;-85
2022/01/23 09:01:34;;;;;;;80.93;35.90;;;6.10;99.90;;;;;;6114233;23;20149;-85
2022/01/23 09:04:00;;;;;;;72.10;36.50;;;5.80;99.90;;;;;;6112538;23;20158;-86
2022/01/23 09:06:26;;;;;;;74.03;38.20;;;6.10;99.90;;;;;;6111758;23;20167;-85
2022/01/23 09:08:53;;;;;;;62.33;33.22;;;6.10;99.90;;;;;;6112238;23;20445;-86
2022/01/23 09:14:07;;;;;;;60.85;32.95;;;5.90;99.90;;;;;;6119380;23;20227;-84
2022/01/23 09:16:38;;;;;;;76.22;36.92;;;6.30;99.90;;;;;;6112884;23;20539;-84
2022/01/23 09:19:04;;;;;;;62.63;34.50;;;5.80;99.90;;;;;;6111793;23;20157;-86
2022/01/23 09:21:30;;;;;;;56.80;29.52;;;6.20;99.90;;;;;;6114716;23;20597;-85
2022/01/23 09:23:56;;;;;;;97.03;44.87;;;6.00;99.90;;;;;;6112213;23;20169;-85
2022/01/23 09:26:23;;;;;;;70.43;35.63;;;6.30;99.90;;;;;;6114784;23;20389;-85
2022/01/23 09:28:52;;;;;;;61.65;35.70;;;6.80;99.90;;;;;;6114278;23;20515;-84
2022/01/23 09:31:28;;;;;;;64.00;32.00;;;6.10;99.90;;;;;;6114222;23;20231;-85
2022/01/23 09:33:53;;;;;;;62.50;34.47;;;6.10;99.90;;;;;;6111031;23;20156;-86
2022/01/23 09:36:19;;;;;;;62.83;32.53;;;6.30;99.90;;;;;;6114751;23;20140;-85
2022/01/23 09:38:45;;;;;;;67.37;34.87;;;6.70;99.90;;;;;;6110162;23;20448;-84
2022/01/23 09:41:16;;;;;;;61.67;32.83;;;7.10;99.90;;;;;;6114026;23;20142;-86
2022/01/23 09:43:43;;;;;;;68.40;33.17;;;6.50;99.90;;;;;;6111291;23;20490;-86
2022/01/23 09:46:09;;;;;;;67.60;33.70;;;6.60;99.90;;;;;;6114525;23;20138;-86
2022/01/23 09:48:35;;;;;;;55.70;32.35;;;6.60;99.90;;;;;;6112089;23;20633;-83
2022/01/23 09:51:04;;;;;;;62.17;32.35;;;6.30;99.90;;;;;;6114508;23;20149;-84
2022/01/23 09:56:05;;;;;;;58.05;29.20;;;6.80;99.90;;;;;;6153720;23;20182;-89
2022/01/23 09:58:32;;;;;;;65.72;33.17;;;6.80;99.90;;;;;;6129434;23;20149;-89
2022/01/23 10:01:01;;;;;;;62.05;33.25;;;6.70;99.90;;;;;;6164434;23;20136;-86
2022/01/23 10:03:27;;;;;;;72.00;33.65;;;6.80;99.90;;;;;;6170803;23;20152;-87
2022/01/23 10:05:54;;;;;;;70.27;33.93;;;6.70;99.90;;;;;;6168302;23;20176;-88
2022/01/23 10:08:21;;;;;;;65.78;33.60;;;6.80;99.90;;;;;;6153959;23;20153;-91
2022/01/23 10:10:53;;;;;;;62.00;35.13;;;6.80;99.90;;;;;;6121941;23;20304;-79
2022/01/23 10:13:24;;;;;;;65.20;30.27;;;7.20;99.90;;;;;;6148546;23;20178;-82
2022/01/23 10:15:50;;;;;;;64.45;34.00;;;7.70;99.90;;;;;;6145317;23;20161;-82
2022/01/23 10:18:18;;;;;;;67.35;33.58;;;6.70;99.90;;;;;;6121432;23;20160;-83
2022/01/23 10:20:46;;;;;;;65.78;33.45;;;7.00;99.90;;;;;;6119326;23;20172;-82
2022/01/23 10:23:13;;;;;;;64.00;32.42;;;6.90;99.90;;;;;;6121294;23;20240;-80
2022/01/23 10:25:41;;;;;;;59.00;33.20;;;8.20;99.90;;;;;;6118900;23;20160;-82
2022/01/23 10:28:16;;;;;;;57.90;31.20;;;6.90;99.90;;;;;;6123097;23;20161;-84
2022/01/23 10:30:51;;;;;;;65.47;33.22;;;7.50;99.90;;;;;;6120208;23;20171;-85
2022/01/23 10:33:18;;;;;;;57.78;32.55;;;7.60;99.90;;;;;;6124103;23;20156;-85
2022/01/23 10:36:08;;;;;;;67.88;33.50;;;7.00;99.90;;;;;;6149789;23;20187;-84
2022/01/23 10:38:44;;;;;;;53.03;27.20;;;7.10;99.90;;;;;;6157768;23;20476;-84
2022/01/23 10:46:49;;;;;;;60.10;33.20;;;7.40;99.90;;;;;;6149539;23;20151;-83
2022/01/23 10:49:15;;;;;;;54.85;30.27;;;7.20;99.90;;;;;;6121143;23;20628;-85
2022/01/23 10:51:40;;;;;;;56.23;29.17;;;7.70;99.90;;;;;;6148817;23;20236;-85
2022/01/23 10:54:19;;;;;;;57.77;32.47;;;7.30;99.90;;;;;;6122205;23;20642;-86
2022/01/23 10:57:05;;;;;;;52.80;29.50;;;7.40;99.90;;;;;;6122248;23;20148;-85
2022/01/23 10:59:40;;;;;;;50.40;27.75;;;7.60;99.90;;;;;;6149773;23;20145;-86
2022/01/23 11:02:08;;;;;;;51.42;29.10;;;9.50;99.90;;;;;;6104736;23;20260;-83
2022/01/23 11:04:48;;;;;;;52.80;29.67;;;7.60;99.90;;;;;;6123726;23;20581;-81
2022/01/23 11:07:14;;;;;;;53.13;30.48;;;7.80;99.90;;;;;;6124753;23;20161;-85
2022/01/23 11:09:41;;;;;;;52.07;29.63;;;7.60;99.90;;;;;;6121361;23;20192;-84
2022/01/23 11:17:53;;;;;;;53.53;30.98;;;7.90;99.90;;;;;;6118200;23;20149;-84
2022/01/23 11:20:45;;;;;;;51.58;29.52;;;9.30;99.90;;;;;;6122155;23;20150;-83
2022/01/23 11:23:24;;;;;;;51.58;28.55;;;7.80;99.90;;;;;;6123531;23;20157;-82
2022/01/23 11:25:55;;;;;;;48.58;26.08;;;7.90;99.90;;;;;;6118499;23;20542;-84
2022/01/23 11:28:31;;;;;;;50.80;28.95;;;7.80;99.90;;;;;;6118411;23;20448;-87
2022/01/23 11:30:57;;;;;;;49.65;27.92;;;7.80;99.90;;;;;;6130741;23;20153;-86
2022/01/23 11:33:23;;;;;;;47.80;26.97;;;8.40;99.90;;;;;;6118396;23;20623;-84
2022/01/23 11:35:49;;;;;;;52.28;26.02;;;7.80;99.90;;;;;;6112553;23;20735;-84
2022/01/23 11:38:19;;;;;;;45.20;26.90;;;8.30;99.90;;;;;;6113535;23;20168;-84
2022/01/23 11:54:37;;;;;;;51.30;27.98;;;7.80;99.90;;;;;;6117218;23;20527;-83
2022/01/23 11:57:03;;;;;;;49.50;28.05;;;7.90;99.90;;;;;;6116237;23;20165;-83
2022/01/23 11:59:39;;;;;;;48.88;27.80;;;8.00;99.90;;;;;;6116687;23;20260;-82
2022/01/23 12:02:20;;;;;;;52.40;27.17;;;7.80;99.90;;;;;;6111676;23;20196;-83
2022/01/23 12:05:16;;;;;;;54.63;28.80;;;7.80;99.90;;;;;;6116046;23;20224;-84
2022/01/23 12:07:43;;;;;;;47.15;26.60;;;8.00;99.90;;;;;;6111974;23;20188;-84
2022/01/23 12:12:51;;;;;;;51.55;27.27;;;7.10;99.90;;;;;;6120151;23;20696;-83
2022/01/23 12:18:18;;;;;;;48.17;29.02;;;8.90;99.90;;;;;;6113601;23;20388;-84
2022/01/23 12:20:46;;;;;;;51.67;28.75;;;8.20;99.90;;;;;;6113486;23;20161;-81
2022/01/23 12:23:14;;;;;;;49.97;27.83;;;8.30;99.90;;;;;;6111474;23;20184;-84
2022/01/23 12:25:52;;;;;;;48.37;27.10;;;8.20;99.90;;;;;;6113407;23;20277;-84
2022/01/23 12:28:28;;;;;;;52.45;29.80;;;8.40;99.90;;;;;;6114125;23;20658;-84
2022/01/23 12:31:18;;;;;;;50.90;30.50;;;8.40;99.90;;;;;;6114514;23;20161;-89
2022/01/23 12:33:48;;;;;;;47.15;27.98;;;8.20;99.90;;;;;;6114576;23;20161;-83
2022/01/23 12:36:13;;;;;;;50.17;27.15;;;8.40;99.90;;;;;;6113370;23;20188;-85
2022/01/23 12:39:08;;;;;;;42.83;26.33;;;8.30;99.90;;;;;;6109896;23;20169;-83
2022/01/23 12:41:34;;;;;;;45.17;26.38;;;8.60;99.90;;;;;;6113123;23;20165;-83
2022/01/23 12:44:06;;;;;;;43.97;26.07;;;9.00;99.90;;;;;;6111014;23;20169;-83
2022/01/23 12:46:34;;;;;;;45.40;28.17;;;8.50;99.90;;;;;;6112289;23;20396;-83
2022/01/23 12:49:14;;;;;;;48.25;28.30;;;8.50;99.90;;;;;;6115454;23;20428;-83
2022/01/23 12:51:42;;;;;;;40.13;25.00;;;9.30;99.90;;;;;;6113776;23;20448;-83
2022/01/23 12:54:14;;;;;;;40.38;25.15;;;8.50;99.90;;;;;;6115527;23;20449;-81
2022/01/23 12:56:43;;;;;;;41.25;26.08;;;8.30;99.90;;;;;;6115822;23;20146;-82
2022/01/23 12:59:13;;;;;;;50.30;27.85;;;8.30;99.90;;;;;;6116960;23;20188;-84
2022/01/23 13:01:44;;;;;;;49.10;27.77;;;8.70;99.90;;;;;;6115587;23;20160;-84
2022/01/23 13:04:10;;;;;;;49.22;28.85;;;8.10;99.90;;;;;;6117854;23;20505;-84
2022/01/23 13:06:51;;;;;;;44.97;26.50;;;8.30;99.90;;;;;;6117619;23;20539;-84
2022/01/23 13:12:36;;;;;;;37.85;23.70;;;8.90;99.90;;;;;;6121342;23;20153;-84
2022/01/23 13:31:43;;;;;;;41.05;25.05;;;8.80;99.90;;;;;;6120882;23;20224;-83
2022/01/23 13:34:36;;;;;;;45.43;23.63;;;8.70;99.90;;;;;;6115870;23;20169;-84
2022/01/23 13:37:10;;;;;;;36.92;21.73;;;8.80;99.90;;;;;;6116425;23;20892;-85
2022/01/23 13:39:47;;;;;;;35.30;23.87;;;8.70;99.90;;;;;;6116345;23;20199;-85
2022/01/23 13:59:52;;;;;;;31.45;21.63;;;8.60;99.90;;;;;;6115161;23;20883;-84
2022/01/23 14:02:47;;;;;;;29.50;21.17;;;8.80;99.90;;;;;;6114711;23;20197;-85
2022/01/23 14:05:26;;;;;;;34.03;22.20;;;9.00;99.90;;;;;;6092430;23;20443;-84
2022/01/23 14:08:30;;;;;;;31.00;21.80;;;8.50;99.90;;;;;;6118630;23;20241;-85
2022/01/23 14:10:56;;;;;;;35.33;21.83;;;8.60;99.90;;;;;;6113765;23;20803;-85
2022/01/23 14:13:24;;;;;;;32.30;20.77;;;9.20;99.90;;;;;;6119532;23;20436;-87
2022/01/23 14:15:55;;;;;;;32.03;19.90;;;8.60;99.90;;;;;;6116498;23;20325;-85
2022/01/23 14:18:29;;;;;;;32.20;19.87;;;9.20;99.90;;;;;;6115677;23;20240;-86
2022/01/23 14:21:05;;;;;;;34.40;20.80;;;8.80;99.90;;;;;;6118643;23;20380;-85
2022/01/23 14:23:34;;;;;;;33.13;22.13;;;9.00;99.90;;;;;;6119148;23;20381;-85
2022/01/23 14:26:15;;;;;;;33.93;20.90;;;8.40;99.90;;;;;;6118428;23;20248;-84
2022/01/23 14:28:46;;;;;;;34.47;21.33;;;8.60;99.90;;;;;;6116961;23;20441;-86
2022/01/23 14:31:17;;;;;;;32.77;18.93;;;8.30;99.90;;;;;;6115897;23;20492;-87
2022/01/23 14:33:47;;;;;;;31.15;20.10;;;9.30;99.90;;;;;;6118466;23;20404;-86
2022/01/23 14:36:22;;;;;;;34.20;21.50;;;9.10;99.90;;;;;;6118807;23;20153;-86
2022/01/23 14:39:04;;;;;;;31.92;20.23;;;8.40;99.90;;;;;;6118101;23;20728;-86
2022/01/23 14:41:33;;;;;;;28.77;19.20;;;8.40;99.90;;;;;;6117417;23;20172;-87
2022/01/23 14:44:00;;;;;;;34.20;20.50;;;8.50;99.90;;;;;;6114261;23;20165;-84
2022/01/23 14:46:26;;;;;;;36.40;24.05;;;8.50;99.90;;;;;;6114804;23;20695;-87
2022/01/23 14:48:59;;;;;;;36.07;21.40;;;8.00;99.90;;;;;;6113427;23;20272;-82
2022/01/23 14:51:26;;;;;;;31.07;18.00;;;8.10;99.90;;;;;;6110437;23;20798;-87
2022/01/23 14:53:53;;;;;;;36.77;21.30;;;8.50;99.90;;;;;;6114780;23;20527;-86
2022/01/23 14:56:21;;;;;;;30.30;19.80;;;8.30;99.90;;;;;;6114564;23;20515;-85
2022/01/23 14:58:49;;;;;;;33.55;19.75;;;8.20;99.90;;;;;;6116373;23;20377;-86
2022/01/23 15:01:16;;;;;;;30.33;20.77;;;8.40;99.90;;;;;;6117085;23;20196;-88
2022/01/23 15:03:56;;;;;;;35.42;19.70;;;8.10;99.90;;;;;;6167393;23;20207;-86
2022/01/23 15:06:24;;;;;;;28.75;19.25;;;8.10;99.90;;;;;;6151154;23;20210;-89
2022/01/23 15:08:50;;;;;;;31.47;19.37;;;8.10;99.90;;;;;;6151253;23;20389;-88
2022/01/23 15:11:18;;;;;;;28.13;18.30;;;8.20;99.90;;;;;;6148108;23;21056;-85
2022/01/23 15:13:47;;;;;;;33.38;19.83;;;8.10;99.90;;;;;;6151374;23;20186;-86
2022/01/23 15:16:12;;;;;;;33.92;20.08;;;7.90;99.90;;;;;;6151375;23;20888;-87
2022/01/23 15:18:38;;;;;;;28.87;18.77;;;7.90;99.90;;;;;;6178167;23;20219;-88
2022/01/23 15:21:04;;;;;;;26.43;17.80;;;7.60;99.90;;;;;;6178711;23;20216;-88
2022/01/23 15:23:29;;;;;;;28.60;19.70;;;10.00;99.90;;;;;;6152749;23;20174;-88
2022/01/23 15:25:55;;;;;;;26.27;17.33;;;7.80;99.90;;;;;;6150280;23;20468;-87
2022/01/23 15:28:21;;;;;;;27.77;19.17;;;7.80;99.90;;;;;;6150766;23;20164;-89
2022/01/23 15:30:49;;;;;;;28.90;18.70;;;7.80;99.90;;;;;;6148823;23;20607;-88
2022/01/23 15:33:14;;;;;;;31.55;18.83;;;7.60;99.90;;;;;;6151359;23;20152;-89
2022/01/23 15:35:49;;;;;;;26.80;17.60;;;7.60;99.90;;;;;;6150444;23;20315;-88
2022/01/23 15:38:19;;;;;;;26.38;18.75;;;7.50;99.90;;;;;;6179302;23;20171;-87
2022/01/23 15:40:45;;;;;;;28.08;18.42;;;7.60;99.90;;;;;;6150449;23;20164;-88
2022/01/23 15:43:12;;;;;;;33.70;21.88;;;7.70;99.90;;;;;;6152510;23;20188;-86
2022/01/23 15:45:38;;;;;;;26.07;18.90;;;7.90;99.90;;;;;;6152748;23;20178;-86
2022/01/23 15:48:04;;;;;;;28.30;18.80;;;8.20;99.90;;;;;;6151758;23;20384;-87
2022/01/23 15:50:30;;;;;;;30.25;20.13;;;8.00;99.90;;;;;;6178659;23;20314;-87
2022/01/23 15:52:56;;;;;;;32.80;19.65;;;7.00;99.90;;;;;;6174265;23;20160;-86
2022/01/23 15:55:27;;;;;;;29.90;20.17;;;7.50;99.90;;;;;;6175919;23;20238;-87
2022/01/23 15:57:52;;;;;;;30.45;20.13;;;7.40;99.90;;;;;;6147264;23;20179;-88
2022/01/23 16:00:19;;;;;;;39.33;20.90;;;7.30;99.90;;;;;;6175566;23;20558;-89
2022/01/23 16:02:45;;;;;;;29.45;19.77;;;6.60;99.90;;;;;;6147337;23;20202;-88
2022/01/23 16:05:11;;;;;;;36.17;21.98;;;7.50;99.90;;;;;;6149614;23;20245;-87
2022/01/23 16:07:37;;;;;;;30.33;19.97;;;7.60;99.90;;;;;;6148414;23;20164;-89
2022/01/23 16:10:07;;;;;;;30.93;20.60;;;7.40;99.90;;;;;;6143873;23;20729;-91
2022/01/23 16:12:50;;;;;;;25.83;18.40;;;7.40;99.90;;;;;;6125283;23;20400;-89
2022/01/23 16:15:33;;;;;;;30.77;18.83;;;7.60;99.90;;;;;;6106229;23;20514;-91
2022/01/23 16:18:02;;;;;;;31.30;20.63;;;7.40;99.90;;;;;;6123874;23;20145;-91
2022/01/23 16:20:36;;;;;;;31.23;20.05;;;8.00;99.90;;;;;;6149522;23;20164;-91
2022/01/23 16:23:07;;;;;;;27.80;19.08;;;7.90;99.90;;;;;;6121869;23;20192;-92